createdAt,value
2019-05-25T00:03:06.429Z,22.03
2019-05-25T00:07:09.665Z,16.43
2019-05-25T00:11:12.753Z,20.07
2019-05-25T00:15:15.884Z,20.47
2019-05-25T00:19:18.968Z,23.10
2019-05-25T00:23:22.076Z,18.93
2019-05-25T00:27:25.170Z,16.97
2019-05-25T00:31:28.245Z,14.53
2019-05-25T00:35:31.362Z,17.67
2019-05-25T00:39:35.572Z,16.43
2019-05-25T00:43:38.688Z,16.80
2019-05-25T00:47:41.789Z,17.13
2019-05-25T00:51:44.898Z,16.27
2019-05-25T00:55:49.801Z,13.13
2019-05-25T00:59:52.928Z,15.13
2019-05-25T01:03:56.118Z,15.23
2019-05-25T01:07:59.238Z,11.47
2019-05-25T01:12:02.301Z,17.90
2019-05-25T01:16:05.433Z,14.67
2019-05-25T01:20:08.851Z,16.23
2019-05-25T01:24:11.941Z,13.70
2019-05-25T01:28:15.045Z,15.43
2019-05-25T01:32:18.141Z,15.30
2019-05-25T01:36:21.245Z,12.53
2019-05-25T01:40:24.305Z,12.97
2019-05-25T01:44:27.463Z,13.23
2019-05-25T01:48:32.353Z,12.80
2019-05-25T01:52:36.510Z,12.67
2019-05-25T01:56:39.625Z,19.83
2019-05-25T02:00:42.829Z,12.27
2019-05-25T02:04:45.931Z,9.80
2019-05-25T02:08:49.022Z,21.07
2019-05-25T02:12:52.086Z,15.33
2019-05-25T02:16:55.259Z,9.43
2019-05-25T02:20:58.325Z,10.53
2019-05-25T02:25:16.429Z,11.00
2019-05-25T02:29:07.576Z,10.93
2019-05-25T02:33:10.809Z,10.17
2019-05-25T02:37:13.901Z,12.33
2019-05-25T02:41:17.009Z,14.77
2019-05-25T02:45:20.097Z,13.30
2019-05-25T02:49:24.711Z,10.40
2019-05-25T02:53:28.742Z,12.60
2019-05-25T02:57:31.863Z,10.97
2019-05-25T03:01:36.377Z,9.97
2019-05-25T03:05:40.640Z,10.60
2019-05-25T03:09:45.201Z,12.13
2019-05-25T03:13:48.289Z,14.00
2019-05-25T03:17:51.365Z,13.20
2019-05-25T03:21:54.457Z,13.17
2019-05-25T03:25:57.579Z,13.70
2019-05-25T03:30:00.685Z,19.30
2019-05-25T03:34:03.870Z,16.90
2019-05-25T03:38:06.972Z,15.43
2019-05-25T03:42:11.873Z,17.33
2019-05-25T03:46:15.110Z,18.77
2019-05-25T03:50:19.321Z,15.67
2019-05-25T03:54:22.445Z,14.23
2019-05-25T03:58:25.541Z,17.00
2019-05-25T04:02:28.707Z,12.80
2019-05-25T04:06:32.952Z,16.73
2019-05-25T04:10:38.909Z,17.73
2019-05-25T04:14:42.271Z,14.77
2019-05-25T04:18:46.759Z,15.77
2019-05-25T04:22:51.689Z,15.80
2019-05-25T04:26:54.852Z,18.30
2019-05-25T04:30:57.939Z,20.27
2019-05-25T04:35:01.044Z,17.63
2019-05-25T04:39:05.898Z,16.13
2019-05-25T04:43:08.974Z,20.03
2019-05-25T04:47:26.169Z,19.03
2019-05-25T04:51:16.809Z,16.70
2019-05-25T04:55:19.904Z,12.30
2019-05-25T04:59:23.008Z,18.70
2019-05-25T05:03:26.115Z,13.90
2019-05-25T05:07:29.215Z,15.53
2019-05-25T05:11:35.395Z,12.63
2019-05-25T05:15:40.266Z,14.20
2019-05-25T05:19:43.322Z,11.33
2019-05-25T05:23:46.414Z,9.77
2019-05-25T05:27:50.845Z,10.40
2019-05-25T05:31:55.049Z,10.67
2019-05-25T05:35:59.106Z,9.50
2019-05-25T05:40:03.323Z,9.13
2019-05-25T05:44:07.554Z,11.93
2019-05-25T05:48:12.315Z,9.13
2019-05-25T05:52:17.645Z,11.53
2019-05-25T05:56:20.769Z,13.07
2019-05-25T06:00:23.958Z,9.63
2019-05-25T06:04:27.066Z,9.33
2019-05-25T06:08:30.161Z,11.83
2019-05-25T06:12:33.267Z,8.90
2019-05-25T06:16:36.332Z,7.10
2019-05-25T06:20:40.466Z,10.77
2019-05-25T06:24:44.598Z,8.57
2019-05-25T06:28:47.709Z,10.93
2019-05-25T06:32:50.813Z,8.33
2019-05-25T06:36:55.014Z,10.47
2019-05-25T06:40:59.254Z,10.03
2019-05-25T06:45:02.372Z,13.37
2019-05-25T06:49:06.922Z,17.80
2019-05-25T06:53:10.004Z,7.07
2019-05-25T06:57:13.126Z,17.10
2019-05-25T07:01:16.209Z,11.07
2019-05-25T07:05:19.395Z,9.63
2019-05-25T07:09:22.518Z,8.27
2019-05-25T07:13:28.465Z,10.87
2019-05-25T07:17:30.454Z,8.07
2019-05-25T07:21:33.523Z,7.03
2019-05-25T07:25:36.671Z,11.47
2019-05-25T07:29:39.746Z,7.27
2019-05-25T07:33:42.846Z,6.30
2019-05-25T07:37:45.949Z,8.43
2019-05-25T07:41:49.047Z,8.63
2019-05-25T07:45:52.166Z,7.23
2019-05-25T07:49:55.252Z,6.33
2019-05-25T07:53:58.354Z,4.77
2019-05-25T07:58:15.552Z,6.17
2019-05-25T08:02:06.196Z,8.57
2019-05-25T08:06:09.292Z,7.63
2019-05-25T08:10:13.701Z,6.67
2019-05-25T08:14:17.026Z,3.17
2019-05-25T08:18:21.200Z,5.10
2019-05-25T08:22:24.365Z,10.07
2019-05-25T08:26:27.456Z,5.40
2019-05-25T08:30:30.508Z,4.97
2019-05-25T08:34:34.960Z,5.93
2019-05-25T08:38:39.170Z,4.10
2019-05-25T08:42:42.318Z,16.63
2019-05-25T08:46:46.424Z,34.23
2019-05-25T08:50:49.544Z,15.23
2019-05-25T08:54:52.601Z,27.97
2019-05-25T08:58:57.049Z,11.63
2019-05-25T09:03:00.088Z,6.60
2019-05-25T09:07:04.980Z,7.10
2019-05-25T09:11:08.126Z,7.17
2019-05-25T09:15:12.693Z,3.63
2019-05-25T09:19:15.748Z,3.33
2019-05-25T09:23:18.820Z,3.40
2019-05-25T09:27:23.267Z,3.90
2019-05-25T09:31:26.388Z,4.20
2019-05-25T09:35:30.498Z,3.10
2019-05-25T09:39:33.612Z,3.43
2019-05-25T09:43:36.733Z,4.33
2019-05-25T09:47:39.817Z,6.57
2019-05-25T09:51:42.923Z,3.23
2019-05-25T09:55:47.204Z,3.57
2019-05-25T09:59:50.320Z,5.30
2019-05-25T10:03:56.534Z,5.53
2019-05-25T10:07:59.496Z,4.13
2019-05-25T10:12:03.721Z,4.50
2019-05-25T10:16:08.181Z,3.40
2019-05-25T10:20:12.676Z,6.73
2019-05-25T10:24:15.806Z,5.07
2019-05-25T10:28:18.866Z,4.50
2019-05-25T10:32:23.812Z,5.17
2019-05-25T10:36:28.266Z,3.60
2019-05-25T10:40:32.688Z,3.80
2019-05-25T10:44:35.817Z,9.70
2019-05-25T10:48:38.989Z,4.40
2019-05-25T10:52:42.129Z,6.37
2019-05-25T10:56:45.265Z,5.43
2019-05-25T11:00:48.656Z,5.50
2019-05-25T11:04:51.724Z,4.87
2019-05-25T11:08:54.893Z,3.13
2019-05-25T11:12:57.941Z,6.37
2019-05-25T11:17:02.511Z,5.53
2019-05-25T11:21:05.705Z,5.87
2019-05-25T11:25:08.521Z,5.13
2019-05-25T11:29:11.771Z,4.83
2019-05-25T11:33:14.873Z,8.17
2019-05-25T11:37:19.057Z,4.33
2019-05-25T11:41:22.198Z,3.73
2019-05-25T11:45:25.507Z,3.73
2019-05-25T11:49:28.605Z,3.33
2019-05-25T11:53:31.715Z,2.67
2019-05-25T11:57:34.759Z,3.77
2019-05-25T12:01:37.977Z,2.23
2019-05-25T12:05:42.315Z,6.43
2019-05-25T12:09:46.537Z,2.90
2019-05-25T12:13:49.681Z,2.90
2019-05-25T12:17:52.769Z,3.77
2019-05-25T12:21:55.902Z,2.50
2019-05-25T12:25:59.071Z,3.00
2019-05-25T12:30:02.212Z,1.83
2019-05-25T12:34:05.373Z,3.33
2019-05-25T12:38:08.485Z,3.07
2019-05-25T12:42:11.573Z,4.20
2019-05-25T12:46:14.682Z,6.93
2019-05-25T12:50:18.877Z,5.83
2019-05-25T12:54:22.000Z,3.90
2019-05-25T12:58:25.108Z,7.63
2019-05-25T13:02:28.220Z,4.53
2019-05-25T13:06:31.300Z,4.37
2019-05-25T13:10:34.418Z,7.13
2019-05-25T13:14:37.509Z,8.40
2019-05-25T13:18:40.565Z,7.87
2019-05-25T13:22:44.805Z,4.33
2019-05-25T13:26:47.923Z,10.27
2019-05-25T13:30:51.028Z,5.43
2019-05-25T13:34:55.948Z,4.53
2019-05-25T13:38:59.004Z,5.97
2019-05-25T13:43:02.082Z,3.33
2019-05-25T13:47:06.488Z,4.00
2019-05-25T13:51:09.610Z,6.97
2019-05-25T13:55:13.215Z,3.93
2019-05-25T13:59:16.319Z,9.30
2019-05-25T14:03:19.429Z,5.50
2019-05-25T14:07:23.536Z,6.13
2019-05-25T14:11:27.936Z,5.70
2019-05-25T14:15:31.081Z,4.73
2019-05-25T14:19:34.153Z,5.77
2019-05-25T14:23:38.615Z,7.10
2019-05-25T14:27:41.709Z,9.83
2019-05-25T14:31:46.447Z,7.80
2019-05-25T14:35:49.659Z,4.67
2019-05-25T14:39:52.764Z,6.50
2019-05-25T14:43:55.857Z,5.60
2019-05-25T14:48:00.428Z,5.63
2019-05-25T14:52:03.693Z,7.63
2019-05-25T14:56:06.793Z,5.77
2019-05-25T15:00:11.905Z,5.63
2019-05-25T15:04:16.534Z,3.73
2019-05-25T15:08:20.738Z,4.43
2019-05-25T15:12:23.860Z,7.80
2019-05-25T15:16:28.237Z,3.40
2019-05-25T15:20:31.273Z,3.73
2019-05-25T15:24:34.351Z,8.90
2019-05-25T15:28:37.600Z,5.57
2019-05-25T15:32:40.753Z,4.77
2019-05-25T15:36:43.848Z,5.30
2019-05-25T15:40:46.933Z,3.97
2019-05-25T15:44:51.365Z,3.73
2019-05-25T15:48:54.493Z,10.33
2019-05-25T15:52:57.593Z,4.77
2019-05-25T15:57:00.697Z,1.80
2019-05-25T16:01:04.985Z,3.97
2019-05-25T16:05:08.509Z,2.73
2019-05-25T16:09:12.740Z,4.87
2019-05-25T16:13:15.956Z,2.87
2019-05-25T16:17:19.055Z,4.33
2019-05-25T16:21:22.176Z,2.73
2019-05-25T16:25:25.304Z,3.17
2019-05-25T16:29:29.668Z,4.17
2019-05-25T16:33:32.793Z,4.33
2019-05-25T16:37:36.229Z,3.27
2019-05-25T16:41:39.497Z,2.77
2019-05-25T16:45:42.594Z,2.33
2019-05-25T16:49:46.805Z,2.50
2019-05-25T16:53:50.468Z,2.93
2019-05-25T16:57:53.545Z,4.97
2019-05-25T17:01:56.649Z,3.83
2019-05-25T17:05:59.745Z,4.73
2019-05-25T17:10:04.251Z,6.53
2019-05-25T17:14:07.472Z,7.13
2019-05-25T17:18:10.651Z,2.00
2019-05-25T17:22:14.975Z,2.90
2019-05-25T17:26:18.033Z,5.47
2019-05-25T17:30:38.929Z,9.90
2019-05-25T17:34:42.032Z,7.63
2019-05-25T17:38:45.128Z,4.87
2019-05-25T17:42:50.041Z,5.63
2019-05-25T17:46:53.181Z,5.47
2019-05-25T17:50:56.285Z,8.37
2019-05-25T17:54:59.377Z,5.00
2019-05-25T17:59:02.585Z,6.03
2019-05-25T18:03:05.825Z,5.23
2019-05-25T18:07:08.884Z,2.60
2019-05-25T18:11:13.797Z,2.83
2019-05-25T18:15:17.139Z,2.90
2019-05-25T18:19:20.233Z,4.37
2019-05-25T18:23:23.347Z,2.83
2019-05-25T18:27:27.817Z,4.00
2019-05-25T18:31:30.971Z,3.97
2019-05-25T18:35:34.196Z,5.27
2019-05-25T18:39:37.264Z,4.07
2019-05-25T18:43:40.388Z,2.97
2019-05-25T18:47:43.493Z,3.43
2019-05-25T18:51:46.579Z,4.47
2019-05-25T18:55:49.689Z,2.53
2019-05-25T18:59:52.781Z,4.00
2019-05-25T19:03:57.214Z,3.00
2019-05-25T19:08:01.514Z,4.60
2019-05-25T19:12:04.761Z,2.97
2019-05-25T19:16:07.941Z,5.27
2019-05-25T19:20:12.771Z,7.63
2019-05-25T19:24:17.186Z,5.67
2019-05-25T19:28:20.321Z,10.73
2019-05-25T19:32:23.455Z,7.73
2019-05-25T19:36:26.634Z,5.27
2019-05-25T19:40:29.723Z,8.20
2019-05-25T19:44:33.933Z,4.47
2019-05-25T19:48:38.263Z,5.83
2019-05-25T19:52:41.381Z,11.73
2019-05-25T19:56:44.491Z,10.23
2019-05-25T20:00:47.585Z,7.90
2019-05-25T20:04:50.680Z,8.67
2019-05-25T20:08:53.771Z,8.40
2019-05-25T20:12:56.888Z,11.83
2019-05-25T20:17:00.006Z,13.13
2019-05-25T20:21:03.087Z,10.23
2019-05-25T20:25:06.420Z,17.10
2019-05-25T20:29:11.306Z,15.03
2019-05-25T20:33:26.404Z,17.87
2019-05-25T20:37:19.290Z,20.90
2019-05-25T20:41:22.389Z,30.17
2019-05-25T20:45:25.485Z,18.37
2019-05-25T20:49:28.593Z,16.37
2019-05-25T20:53:31.673Z,14.43
2019-05-25T20:57:34.781Z,15.60
2019-05-25T21:01:37.886Z,13.30
2019-05-25T21:05:50.466Z,11.13
2019-05-25T21:09:47.783Z,12.23
2019-05-25T21:13:50.911Z,10.63
2019-05-25T21:17:54.045Z,10.37
2019-05-25T21:21:58.193Z,7.37
2019-05-25T21:26:01.323Z,11.90
2019-05-25T21:30:05.157Z,10.37
2019-05-25T21:34:09.322Z,9.47
2019-05-25T21:38:12.529Z,13.10
2019-05-25T21:42:15.685Z,18.17
2019-05-25T21:46:18.751Z,13.97
2019-05-25T21:50:21.849Z,13.77
2019-05-25T21:54:24.973Z,14.47
2019-05-25T21:58:28.062Z,14.90
2019-05-25T22:02:31.162Z,15.03
2019-05-25T22:06:34.248Z,19.70
2019-05-25T22:10:37.359Z,11.33
2019-05-25T22:14:41.569Z,14.30
2019-05-25T22:18:44.691Z,16.60
2019-05-25T22:22:47.908Z,14.13
2019-05-25T22:26:50.990Z,15.33
2019-05-25T22:30:54.092Z,16.60
2019-05-25T22:34:57.187Z,26.47
2019-05-25T22:39:00.293Z,14.80
2019-05-25T22:43:03.385Z,17.03
2019-05-25T22:47:06.497Z,11.17
2019-05-25T22:51:09.589Z,10.37
2019-05-25T22:55:12.710Z,9.43
2019-05-25T22:59:15.797Z,8.47
2019-05-25T23:03:20.197Z,8.63
2019-05-25T23:07:23.425Z,12.63
2019-05-25T23:11:26.533Z,8.73
2019-05-25T23:15:29.629Z,9.07
2019-05-25T23:19:32.723Z,8.07
2019-05-25T23:23:35.829Z,9.27
2019-05-25T23:27:38.932Z,8.30
2019-05-25T23:31:42.033Z,9.67
2019-05-25T23:35:46.593Z,8.77
2019-05-25T23:39:49.869Z,9.83
2019-05-25T23:43:53.973Z,8.27
2019-05-25T23:47:58.293Z,7.43
2019-05-25T23:52:02.417Z,9.00
2019-05-25T23:56:05.470Z,8.60
